»·PEaware :: ECADR KSNA-KSNA

ECADR :: KSNA-KSNA

FLIGHT INFORMATION

Flight Status: Arrived
Operator: Unknown
More flights by this operator :: More flights under this callsign
Pilot: Adrián R. (20842)
Aircraft: CESSNA 172 SKYHAWK
(C172)
More flights by this aircraft type
Origin: KSNA John Wayne-Orange Co
United States
Destination: KSNA John Wayne-Orange Co
United States
More flights between these airports :: More routes between these airports
Route: SLI
File this flight plan on PilotEdge
Remarks: I-01 RATING
Altitude:
(Current/Filed)
3,000ft
Speed:
(Current/Filed)
105kts
Departed: 30-Oct-18 07:25 AM
Arrived: 30-Oct-18 07:46 AM
Distance/Time
Traveled:
0nm/0:21
Distance/Time
To Go:
Arrived

Flight Plot

Page will automatically refresh every two minutes.


Map Options




Map Legend


Flown Route
Filed Route
Departure Airport
Arrival Airport
Navaid (VOR, NDB)
Fix

Horizontal Profiles

Position Reports

Time Latitude Longitude Heading Altitude Ground
Speed
30-Oct-18 07:00 33.671252 -117.867524 213 60ft 0kts
30-Oct-18 07:01 33.671252 -117.867524 213 60ft 0kts
30-Oct-18 07:02 33.671252 -117.867524 213 60ft 0kts
30-Oct-18 07:03 33.671252 -117.867524 213 60ft 0kts
30-Oct-18 07:04 33.671252 -117.867524 213 60ft 0kts
30-Oct-18 07:05 33.671252 -117.867524 213 60ft 0kts
30-Oct-18 07:06 33.671252 -117.867524 213 60ft 0kts
30-Oct-18 07:07 33.671252 -117.867524 213 60ft 0kts
30-Oct-18 07:08 33.671252 -117.867524 213 60ft 0kts
30-Oct-18 07:09 33.671252 -117.867524 213 60ft 0kts
30-Oct-18 07:10 33.671252 -117.867524 213 60ft 0kts
30-Oct-18 07:11 33.671252 -117.867524 213 60ft 0kts
30-Oct-18 07:12 33.671252 -117.867524 213 60ft 0kts
30-Oct-18 07:13 33.671252 -117.867524 213 60ft 0kts
30-Oct-18 07:14 33.671252 -117.867524 213 60ft 0kts
30-Oct-18 07:15 33.671252 -117.867524 213 60ft 0kts
30-Oct-18 07:16 33.671252 -117.867524 213 60ft 0kts
30-Oct-18 07:17 33.671252 -117.867524 213 60ft 0kts
30-Oct-18 07:18 33.671252 -117.867524 213 60ft 0kts
30-Oct-18 07:19 33.671252 -117.867524 213 60ft 0kts
30-Oct-18 07:20 33.672248 -117.868022 29 60ft 12kts
30-Oct-18 07:21 33.673388 -117.867690 29 60ft 0kts
30-Oct-18 07:22 33.673387 -117.867691 29 60ft 0kts
30-Oct-18 07:23 33.673387 -117.867691 29 60ft 0kts
30-Oct-18 07:24 33.673389 -117.867689 29 60ft 0kts
30-Oct-18 07:25 33.677029 -117.865210 27 60ft 20kts
30-Oct-18 07:26 33.679997 -117.863630 298 60ft 0kts
30-Oct-18 07:27 33.680115 -117.864015 271 60ft 9kts
30-Oct-18 07:28 33.665945 -117.873838 216 558ft 83kts
30-Oct-18 07:29 33.653690 -117.897338 235 1480ft 84kts
30-Oct-18 07:30 33.641094 -117.921521 233 2280ft 89kts
30-Oct-18 07:31 33.652996 -117.938396 20 2951ft 88kts
30-Oct-18 07:32 33.680102 -117.926683 23 3002ft 114kts
30-Oct-18 07:33 33.709166 -117.913809 23 3001ft 109kts
30-Oct-18 07:34 33.737243 -117.901447 23 3001ft 106kts
30-Oct-18 07:35 33.764862 -117.889316 23 3001ft 106kts
30-Oct-18 07:36 33.792433 -117.877143 23 3001ft 106kts
30-Oct-18 07:36 33.815336 -117.866958 23 3001ft 107kts
30-Oct-18 07:38 33.847902 -117.852360 23 3001ft 107kts
30-Oct-18 07:39 33.874077 -117.836927 66 2997ft 104kts
30-Oct-18 07:39 33.866825 -117.810000 114 3003ft 105kts
30-Oct-18 07:41 33.851123 -117.773869 133 3002ft 106kts
30-Oct-18 07:41 33.826479 -117.770448 192 3004ft 112kts
30-Oct-18 07:42 33.798819 -117.791266 203 2662ft 118kts
30-Oct-18 07:44 33.765033 -117.812117 205 1942ft 116kts
30-Oct-18 07:44 33.741853 -117.826868 205 1427ft 114kts
30-Oct-18 07:45 33.713916 -117.844601 205 809ft 113kts
30-Oct-18 07:46 33.690987 -117.859158 203 307ft 68kts
30-Oct-18 07:47 33.676063 -117.868568 206 60ft 43kts
30-Oct-18 07:48 33.669186 -117.871726 135 60ft 0kts
30-Oct-18 07:49 33.669186 -117.871726 135 60ft 0kts
30-Oct-18 07:50 33.670452 -117.869507 40 60ft 19kts
30-Oct-18 07:51 33.670916 -117.867531 327 60ft 0kts
30-Oct-18 07:52 33.670916 -117.867531 327 60ft 0kts
30-Oct-18 07:53 33.670916 -117.867531 327 60ft 0kts

Navigation Log

Ident Type
Flight plan parsing failed, navigation log unavailable